sensor_id;sensor_type;location;lat;lon;timestamp;P1;durP1;ratioP1;P2;durP2;ratioP2
54408;SDS011;40315;48.620;9.828;2023-07-09T00:00:17;5.63;;;4.43;;
54408;SDS011;40315;48.620;9.828;2023-07-09T00:02:46;7.13;;;4.78;;
54408;SDS011;40315;48.620;9.828;2023-07-09T00:05:16;6.65;;;4.85;;
54408;SDS011;40315;48.620;9.828;2023-07-09T00:07:43;8.00;;;4.57;;
54408;SDS011;40315;48.620;9.828;2023-07-09T00:10:15;7.70;;;4.30;;
54408;SDS011;40315;48.620;9.828;2023-07-09T00:12:44;5.57;;;4.53;;
54408;SDS011;40315;48.620;9.828;2023-07-09T00:15:11;8.27;;;4.95;;
54408;SDS011;40315;48.620;9.828;2023-07-09T00:17:42;5.47;;;4.30;;
54408;SDS011;40315;48.620;9.828;2023-07-09T00:20:10;4.90;;;4.10;;
54408;SDS011;40315;48.620;9.828;2023-07-09T00:22:40;4.68;;;4.18;;
54408;SDS011;40315;48.620;9.828;2023-07-09T00:25:07;5.70;;;4.03;;
54408;SDS011;40315;48.620;9.828;2023-07-09T00:27:39;12.05;;;5.05;;
54408;SDS011;40315;48.620;9.828;2023-07-09T00:30:12;8.25;;;4.70;;
54408;SDS011;40315;48.620;9.828;2023-07-09T00:32:43;7.93;;;4.93;;
54408;SDS011;40315;48.620;9.828;2023-07-09T00:35:13;5.93;;;4.65;;
54408;SDS011;40315;48.620;9.828;2023-07-09T00:37:41;7.25;;;4.57;;
54408;SDS011;40315;48.620;9.828;2023-07-09T00:40:14;7.32;;;4.07;;
54408;SDS011;40315;48.620;9.828;2023-07-09T00:42:46;7.13;;;4.75;;
54408;SDS011;40315;48.620;9.828;2023-07-09T00:45:17;6.10;;;4.30;;
54408;SDS011;40315;48.620;9.828;2023-07-09T00:47:52;9.27;;;3.92;;
54408;SDS011;40315;48.620;9.828;2023-07-09T00:50:35;5.38;;;3.75;;
54408;SDS011;40315;48.620;9.828;2023-07-09T00:53:09;6.30;;;4.00;;
54408;SDS011;40315;48.620;9.828;2023-07-09T00:55:44;5.35;;;4.10;;
54408;SDS011;40315;48.620;9.828;2023-07-09T00:58:15;5.60;;;4.15;;
54408;SDS011;40315;48.620;9.828;2023-07-09T01:03:32;6.22;;;3.80;;
54408;SDS011;40315;48.620;9.828;2023-07-09T01:06:02;5.05;;;3.88;;
54408;SDS011;40315;48.620;9.828;2023-07-09T01:08:31;5.80;;;3.97;;
54408;SDS011;40315;48.620;9.828;2023-07-09T01:11:00;7.28;;;3.78;;
54408;SDS011;40315;48.620;9.828;2023-07-09T01:13:28;5.85;;;3.97;;
54408;SDS011;40315;48.620;9.828;2023-07-09T01:15:57;5.85;;;4.20;;
54408;SDS011;40315;48.620;9.828;2023-07-09T01:18:24;5.75;;;3.70;;
54408;SDS011;40315;48.620;9.828;2023-07-09T01:20:58;6.35;;;3.85;;
54408;SDS011;40315;48.620;9.828;2023-07-09T01:23:28;4.53;;;3.50;;
54408;SDS011;40315;48.620;9.828;2023-07-09T01:25:56;4.97;;;3.60;;
54408;SDS011;40315;48.620;9.828;2023-07-09T01:28:25;4.45;;;3.65;;
54408;SDS011;40315;48.620;9.828;2023-07-09T01:30:52;4.35;;;3.92;;
54408;SDS011;40315;48.620;9.828;2023-07-09T01:33:21;4.50;;;3.67;;
54408;SDS011;40315;48.620;9.828;2023-07-09T01:35:49;6.53;;;3.30;;
54408;SDS011;40315;48.620;9.828;2023-07-09T01:38:21;6.85;;;4.13;;
54408;SDS011;40315;48.620;9.828;2023-07-09T01:40:51;5.68;;;3.55;;
54408;SDS011;40315;48.620;9.828;2023-07-09T01:43:18;5.45;;;3.75;;
54408;SDS011;40315;48.620;9.828;2023-07-09T01:45:45;4.88;;;3.70;;
54408;SDS011;40315;48.620;9.828;2023-07-09T01:54:48;4.60;;;3.50;;
54408;SDS011;40315;48.620;9.828;2023-07-09T01:57:16;5.45;;;3.75;;
54408;SDS011;40315;48.620;9.828;2023-07-09T01:59:48;4.30;;;3.70;;
54408;SDS011;40315;48.620;9.828;2023-07-09T02:02:15;5.93;;;3.65;;
54408;SDS011;40315;48.620;9.828;2023-07-09T02:04:51;8.43;;;3.92;;
54408;SDS011;40315;48.620;9.828;2023-07-09T02:07:19;4.50;;;3.70;;
54408;SDS011;40315;48.620;9.828;2023-07-09T02:09:49;6.72;;;3.83;;
54408;SDS011;40315;48.620;9.828;2023-07-09T02:12:16;4.18;;;3.45;;
54408;SDS011;40315;48.620;9.828;2023-07-09T02:14:44;6.35;;;3.83;;
54408;SDS011;40315;48.620;9.828;2023-07-09T02:17:12;5.18;;;4.05;;
54408;SDS011;40315;48.620;9.828;2023-07-09T02:19:40;6.93;;;4.05;;
54408;SDS011;40315;48.620;9.828;2023-07-09T02:22:08;5.00;;;3.67;;
54408;SDS011;40315;48.620;9.828;2023-07-09T02:24:38;7.13;;;3.78;;
54408;SDS011;40315;48.620;9.828;2023-07-09T02:27:07;5.68;;;3.70;;
54408;SDS011;40315;48.620;9.828;2023-07-09T02:29:36;6.07;;;3.80;;
54408;SDS011;40315;48.620;9.828;2023-07-09T02:32:04;4.75;;;3.45;;
54408;SDS011;40315;48.620;9.828;2023-07-09T02:34:32;5.47;;;3.63;;
54408;SDS011;40315;48.620;9.828;2023-07-09T02:37:00;5.88;;;3.72;;
54408;SDS011;40315;48.620;9.828;2023-07-09T02:39:28;4.70;;;3.72;;
54408;SDS011;40315;48.620;9.828;2023-07-09T02:41:55;6.03;;;3.70;;
54408;SDS011;40315;48.620;9.828;2023-07-09T02:44:23;5.43;;;3.45;;
54408;SDS011;40315;48.620;9.828;2023-07-09T02:46:50;6.78;;;3.63;;
54408;SDS011;40315;48.620;9.828;2023-07-09T02:49:17;4.80;;;3.40;;
54408;SDS011;40315;48.620;9.828;2023-07-09T02:51:44;5.68;;;3.80;;
54408;SDS011;40315;48.620;9.828;2023-07-09T02:54:11;4.75;;;3.63;;
54408;SDS011;40315;48.620;9.828;2023-07-09T02:56:38;4.72;;;3.58;;
54408;SDS011;40315;48.620;9.828;2023-07-09T02:59:08;6.00;;;3.53;;
54408;SDS011;40315;48.620;9.828;2023-07-09T03:01:38;5.40;;;3.88;;
54408;SDS011;40315;48.620;9.828;2023-07-09T03:04:05;5.10;;;3.80;;
54408;SDS011;40315;48.620;9.828;2023-07-09T03:06:35;6.32;;;4.00;;
54408;SDS011;40315;48.620;9.828;2023-07-09T03:09:03;6.50;;;3.90;;
54408;SDS011;40315;48.620;9.828;2023-07-09T03:11:33;4.55;;;3.60;;
54408;SDS011;40315;48.620;9.828;2023-07-09T03:14:01;7.22;;;3.90;;
54408;SDS011;40315;48.620;9.828;2023-07-09T03:16:32;5.88;;;3.78;;
54408;SDS011;40315;48.620;9.828;2023-07-09T03:19:01;6.10;;;4.03;;
54408;SDS011;40315;48.620;9.828;2023-07-09T03:21:32;4.40;;;3.88;;
54408;SDS011;40315;48.620;9.828;2023-07-09T03:23:59;8.20;;;4.20;;
54408;SDS011;40315;48.620;9.828;2023-07-09T03:26:26;6.80;;;4.32;;
54408;SDS011;40315;48.620;9.828;2023-07-09T03:28:53;7.18;;;4.03;;
54408;SDS011;40315;48.620;9.828;2023-07-09T03:31:21;6.05;;;3.67;;
54408;SDS011;40315;48.620;9.828;2023-07-09T03:33:49;6.28;;;3.90;;
54408;SDS011;40315;48.620;9.828;2023-07-09T03:36:18;5.38;;;3.70;;
54408;SDS011;40315;48.620;9.828;2023-07-09T03:38:46;6.18;;;3.95;;
54408;SDS011;40315;48.620;9.828;2023-07-09T03:41:13;4.47;;;3.60;;
54408;SDS011;40315;48.620;9.828;2023-07-09T03:43:43;4.00;;;3.22;;
54408;SDS011;40315;48.620;9.828;2023-07-09T03:46:10;4.35;;;3.22;;
54408;SDS011;40315;48.620;9.828;2023-07-09T03:48:37;5.22;;;3.75;;
54408;SDS011;40315;48.620;9.828;2023-07-09T03:51:04;4.97;;;3.50;;
54408;SDS011;40315;48.620;9.828;2023-07-09T03:53:33;4.55;;;3.47;;
54408;SDS011;40315;48.620;9.828;2023-07-09T03:56:00;5.35;;;3.72;;
54408;SDS011;40315;48.620;9.828;2023-07-09T03:58:27;4.88;;;3.40;;
54408;SDS011;40315;48.620;9.828;2023-07-09T04:00:56;5.47;;;3.72;;
54408;SDS011;40315;48.620;9.828;2023-07-09T04:03:23;5.00;;;3.92;;
54408;SDS011;40315;48.620;9.828;2023-07-09T04:05:50;6.30;;;4.03;;
54408;SDS011;40315;48.620;9.828;2023-07-09T04:08:17;5.80;;;4.22;;
54408;SDS011;40315;48.620;9.828;2023-07-09T04:10:46;4.43;;;3.88;;
54408;SDS011;40315;48.620;9.828;2023-07-09T04:13:13;5.68;;;3.88;;
54408;SDS011;40315;48.620;9.828;2023-07-09T04:15:40;5.55;;;4.18;;
54408;SDS011;40315;48.620;9.828;2023-07-09T04:18:07;4.25;;;3.80;;
54408;SDS011;40315;48.620;9.828;2023-07-09T04:20:36;6.25;;;3.80;;
54408;SDS011;40315;48.620;9.828;2023-07-09T04:23:03;6.28;;;3.80;;
54408;SDS011;40315;48.620;9.828;2023-07-09T04:25:31;6.07;;;4.03;;
54408;SDS011;40315;48.620;9.828;2023-07-09T04:28:00;6.57;;;3.65;;
54408;SDS011;40315;48.620;9.828;2023-07-09T04:30:27;5.63;;;3.88;;
54408;SDS011;40315;48.620;9.828;2023-07-09T04:32:54;6.28;;;3.63;;
54408;SDS011;40315;48.620;9.828;2023-07-09T04:35:21;5.10;;;3.80;;
54408;SDS011;40315;48.620;9.828;2023-07-09T04:37:49;5.38;;;3.80;;
54408;SDS011;40315;48.620;9.828;2023-07-09T04:40:17;7.22;;;3.50;;
54408;SDS011;40315;48.620;9.828;2023-07-09T04:42:45;4.60;;;3.70;;
54408;SDS011;40315;48.620;9.828;2023-07-09T04:45:13;6.82;;;4.03;;
54408;SDS011;40315;48.620;9.828;2023-07-09T04:47:40;6.07;;;3.75;;
54408;SDS011;40315;48.620;9.828;2023-07-09T04:50:07;6.18;;;4.00;;
54408;SDS011;40315;48.620;9.828;2023-07-09T04:52:38;6.72;;;4.10;;
54408;SDS011;40315;48.620;9.828;2023-07-09T04:55:07;6.63;;;4.22;;
54408;SDS011;40315;48.620;9.828;2023-07-09T04:57:34;4.82;;;3.47;;
54408;SDS011;40315;48.620;9.828;2023-07-09T05:00:04;4.55;;;3.45;;
54408;SDS011;40315;48.620;9.828;2023-07-09T05:02:33;6.05;;;3.83;;
54408;SDS011;40315;48.620;9.828;2023-07-09T05:05:00;5.45;;;4.10;;
54408;SDS011;40315;48.620;9.828;2023-07-09T05:07:29;5.70;;;3.78;;
54408;SDS011;40315;48.620;9.828;2023-07-09T05:09:58;4.78;;;3.95;;
54408;SDS011;40315;48.620;9.828;2023-07-09T05:12:28;4.32;;;3.63;;
54408;SDS011;40315;48.620;9.828;2023-07-09T05:14:55;7.03;;;4.13;;
54408;SDS011;40315;48.620;9.828;2023-07-09T05:17:22;8.02;;;3.90;;
54408;SDS011;40315;48.620;9.828;2023-07-09T05:19:51;7.05;;;3.80;;
54408;SDS011;40315;48.620;9.828;2023-07-09T05:22:20;4.22;;;3.50;;
54408;SDS011;40315;48.620;9.828;2023-07-09T05:24:47;4.25;;;3.47;;
54408;SDS011;40315;48.620;9.828;2023-07-09T05:27:14;4.10;;;3.40;;
54408;SDS011;40315;48.620;9.828;2023-07-09T05:29:41;7.07;;;3.40;;
54408;SDS011;40315;48.620;9.828;2023-07-09T05:32:08;5.03;;;3.17;;
54408;SDS011;40315;48.620;9.828;2023-07-09T05:34:35;4.80;;;3.03;;
54408;SDS011;40315;48.620;9.828;2023-07-09T05:37:05;5.78;;;3.63;;
54408;SDS011;40315;48.620;9.828;2023-07-09T05:39:32;4.53;;;3.25;;
54408;SDS011;40315;48.620;9.828;2023-07-09T05:41:59;3.85;;;3.40;;
54408;SDS011;40315;48.620;9.828;2023-07-09T05:44:26;4.70;;;3.42;;
54408;SDS011;40315;48.620;9.828;2023-07-09T05:46:57;4.07;;;3.50;;
54408;SDS011;40315;48.620;9.828;2023-07-09T05:49:24;5.32;;;3.33;;
54408;SDS011;40315;48.620;9.828;2023-07-09T05:51:53;4.50;;;3.42;;
54408;SDS011;40315;48.620;9.828;2023-07-09T05:54:24;4.43;;;3.13;;
54408;SDS011;40315;48.620;9.828;2023-07-09T05:56:51;5.82;;;3.83;;
54408;SDS011;40315;48.620;9.828;2023-07-09T05:59:19;4.10;;;3.45;;
54408;SDS011;40315;48.620;9.828;2023-07-09T06:01:46;3.90;;;3.50;;
54408;SDS011;40315;48.620;9.828;2023-07-09T06:04:13;3.42;;;2.97;;
54408;SDS011;40315;48.620;9.828;2023-07-09T06:06:41;4.63;;;3.60;;
54408;SDS011;40315;48.620;9.828;2023-07-09T06:09:09;4.32;;;3.60;;
54408;SDS011;40315;48.620;9.828;2023-07-09T06:11:39;4.97;;;3.60;;
54408;SDS011;40315;48.620;9.828;2023-07-09T06:14:09;4.53;;;3.40;;
54408;SDS011;40315;48.620;9.828;2023-07-09T06:16:36;4.15;;;3.45;;
54408;SDS011;40315;48.620;9.828;2023-07-09T06:19:03;6.13;;;3.40;;
54408;SDS011;40315;48.620;9.828;2023-07-09T06:21:30;5.65;;;3.40;;
54408;SDS011;40315;48.620;9.828;2023-07-09T06:23:57;4.95;;;3.10;;
54408;SDS011;40315;48.620;9.828;2023-07-09T06:26:24;3.30;;;2.95;;
54408;SDS011;40315;48.620;9.828;2023-07-09T06:28:52;5.03;;;3.30;;
54408;SDS011;40315;48.620;9.828;2023-07-09T06:31:19;4.95;;;3.33;;
54408;SDS011;40315;48.620;9.828;2023-07-09T06:33:49;4.63;;;3.30;;
54408;SDS011;40315;48.620;9.828;2023-07-09T06:36:16;4.05;;;3.10;;
54408;SDS011;40315;48.620;9.828;2023-07-09T06:38:49;6.03;;;3.30;;
54408;SDS011;40315;48.620;9.828;2023-07-09T06:41:16;5.65;;;3.53;;
54408;SDS011;40315;48.620;9.828;2023-07-09T06:43:43;5.10;;;3.30;;
54408;SDS011;40315;48.620;9.828;2023-07-09T06:46:14;4.13;;;3.60;;
54408;SDS011;40315;48.620;9.828;2023-07-09T06:48:42;5.68;;;3.80;;
54408;SDS011;40315;48.620;9.828;2023-07-09T06:51:09;5.28;;;3.40;;
54408;SDS011;40315;48.620;9.828;2023-07-09T06:53:36;4.65;;;3.65;;
54408;SDS011;40315;48.620;9.828;2023-07-09T06:56:07;7.00;;;3.40;;
54408;SDS011;40315;48.620;9.828;2023-07-09T06:58:35;5.35;;;3.72;;
54408;SDS011;40315;48.620;9.828;2023-07-09T07:01:03;4.95;;;3.60;;
54408;SDS011;40315;48.620;9.828;2023-07-09T07:03:32;4.28;;;3.42;;
54408;SDS011;40315;48.620;9.828;2023-07-09T07:06:00;4.13;;;3.67;;
54408;SDS011;40315;48.620;9.828;2023-07-09T07:08:34;6.25;;;3.97;;
54408;SDS011;40315;48.620;9.828;2023-07-09T07:11:10;4.75;;;3.92;;
54408;SDS011;40315;48.620;9.828;2023-07-09T07:13:38;5.35;;;3.60;;
54408;SDS011;40315;48.620;9.828;2023-07-09T07:16:09;4.47;;;3.72;;
54408;SDS011;40315;48.620;9.828;2023-07-09T07:18:38;6.18;;;3.83;;
54408;SDS011;40315;48.620;9.828;2023-07-09T07:21:06;4.47;;;3.60;;
54408;SDS011;40315;48.620;9.828;2023-07-09T07:23:33;4.50;;;3.78;;
54408;SDS011;40315;48.620;9.828;2023-07-09T07:26:00;4.15;;;3.60;;
54408;SDS011;40315;48.620;9.828;2023-07-09T07:28:29;5.97;;;3.78;;
54408;SDS011;40315;48.620;9.828;2023-07-09T07:31:00;5.38;;;3.78;;
54408;SDS011;40315;48.620;9.828;2023-07-09T07:33:28;4.85;;;3.70;;
54408;SDS011;40315;48.620;9.828;2023-07-09T07:35:57;4.68;;;3.50;;
54408;SDS011;40315;48.620;9.828;2023-07-09T07:38:26;5.57;;;3.67;;
54408;SDS011;40315;48.620;9.828;2023-07-09T07:40:53;5.05;;;3.30;;
54408;SDS011;40315;48.620;9.828;2023-07-09T07:43:20;4.65;;;3.47;;
54408;SDS011;40315;48.620;9.828;2023-07-09T07:45:47;4.25;;;3.55;;
54408;SDS011;40315;48.620;9.828;2023-07-09T07:48:14;4.50;;;3.97;;
54408;SDS011;40315;48.620;9.828;2023-07-09T07:50:41;6.13;;;3.92;;
54408;SDS011;40315;48.620;9.828;2023-07-09T07:53:12;5.00;;;3.60;;
54408;SDS011;40315;48.620;9.828;2023-07-09T07:55:40;6.40;;;3.67;;
54408;SDS011;40315;48.620;9.828;2023-07-09T07:58:08;4.03;;;3.40;;
54408;SDS011;40315;48.620;9.828;2023-07-09T08:00:37;5.25;;;3.85;;
54408;SDS011;40315;48.620;9.828;2023-07-09T08:03:07;4.80;;;3.50;;
54408;SDS011;40315;48.620;9.828;2023-07-09T08:05:34;4.28;;;3.45;;
54408;SDS011;40315;48.620;9.828;2023-07-09T08:08:03;4.47;;;3.53;;
54408;SDS011;40315;48.620;9.828;2023-07-09T08:10:41;5.25;;;3.80;;
54408;SDS011;40315;48.620;9.828;2023-07-09T08:13:11;4.53;;;3.88;;
54408;SDS011;40315;48.620;9.828;2023-07-09T08:15:38;4.75;;;3.20;;
54408;SDS011;40315;48.620;9.828;2023-07-09T08:18:05;4.78;;;3.90;;
54408;SDS011;40315;48.620;9.828;2023-07-09T08:20:34;5.03;;;3.70;;
54408;SDS011;40315;48.620;9.828;2023-07-09T08:23:05;5.68;;;3.38;;
54408;SDS011;40315;48.620;9.828;2023-07-09T08:25:32;4.63;;;3.08;;
54408;SDS011;40315;48.620;9.828;2023-07-09T08:28:00;4.40;;;2.85;;
54408;SDS011;40315;48.620;9.828;2023-07-09T08:30:33;4.47;;;2.80;;
54408;SDS011;40315;48.620;9.828;2023-07-09T08:33:00;2.95;;;2.65;;
54408;SDS011;40315;48.620;9.828;2023-07-09T08:35:27;3.95;;;2.58;;
54408;SDS011;40315;48.620;9.828;2023-07-09T08:37:54;3.10;;;2.78;;
54408;SDS011;40315;48.620;9.828;2023-07-09T08:40:21;5.32;;;2.83;;
54408;SDS011;40315;48.620;9.828;2023-07-09T08:42:49;4.15;;;3.10;;
54408;SDS011;40315;48.620;9.828;2023-07-09T08:45:27;2.90;;;2.35;;
54408;SDS011;40315;48.620;9.828;2023-07-09T08:48:02;4.22;;;2.88;;
54408;SDS011;40315;48.620;9.828;2023-07-09T08:50:32;7.13;;;3.03;;
54408;SDS011;40315;48.620;9.828;2023-07-09T08:53:07;4.38;;;2.65;;
54408;SDS011;40315;48.620;9.828;2023-07-09T08:55:40;3.92;;;2.75;;
54408;SDS011;40315;48.620;9.828;2023-07-09T08:58:13;6.03;;;3.40;;
54408;SDS011;40315;48.620;9.828;2023-07-09T09:00:51;4.80;;;2.50;;
54408;SDS011;40315;48.620;9.828;2023-07-09T09:03:27;6.07;;;3.13;;
54408;SDS011;40315;48.620;9.828;2023-07-09T09:05:59;3.75;;;2.90;;
54408;SDS011;40315;48.620;9.828;2023-07-09T09:08:30;5.20;;;2.97;;
54408;SDS011;40315;48.620;9.828;2023-07-09T09:11:07;4.70;;;3.00;;
54408;SDS011;40315;48.620;9.828;2023-07-09T09:13:42;5.13;;;2.80;;
54408;SDS011;40315;48.620;9.828;2023-07-09T09:16:13;5.40;;;2.47;;
54408;SDS011;40315;48.620;9.828;2023-07-09T09:18:47;3.28;;;2.72;;
54408;SDS011;40315;48.620;9.828;2023-07-09T09:21:17;4.22;;;2.60;;
54408;SDS011;40315;48.620;9.828;2023-07-09T09:23:50;4.82;;;2.70;;
54408;SDS011;40315;48.620;9.828;2023-07-09T09:26:23;3.35;;;2.90;;
54408;SDS011;40315;48.620;9.828;2023-07-09T09:28:54;4.00;;;2.67;;
54408;SDS011;40315;48.620;9.828;2023-07-09T09:31:24;3.42;;;2.58;;
54408;SDS011;40315;48.620;9.828;2023-07-09T09:33:52;3.30;;;2.75;;
54408;SDS011;40315;48.620;9.828;2023-07-09T09:36:23;3.13;;;2.60;;
54408;SDS011;40315;48.620;9.828;2023-07-09T09:38:52;4.13;;;2.90;;
54408;SDS011;40315;48.620;9.828;2023-07-09T09:41:22;3.63;;;2.88;;
54408;SDS011;40315;48.620;9.828;2023-07-09T09:43:53;4.75;;;2.70;;
54408;SDS011;40315;48.620;9.828;2023-07-09T09:46:26;5.05;;;3.00;;
54408;SDS011;40315;48.620;9.828;2023-07-09T09:48:54;4.75;;;2.83;;
54408;SDS011;40315;48.620;9.828;2023-07-09T09:51:22;5.63;;;2.70;;
54408;SDS011;40315;48.620;9.828;2023-07-09T09:53:50;5.13;;;3.25;;
54408;SDS011;40315;48.620;9.828;2023-07-09T09:56:25;4.55;;;2.90;;
54408;SDS011;40315;48.620;9.828;2023-07-09T09:58:54;3.42;;;2.78;;
54408;SDS011;40315;48.620;9.828;2023-07-09T10:01:25;3.15;;;2.40;;
54408;SDS011;40315;48.620;9.828;2023-07-09T10:03:56;3.88;;;2.92;;
54408;SDS011;40315;48.620;9.828;2023-07-09T10:06:29;3.92;;;2.67;;
54408;SDS011;40315;48.620;9.828;2023-07-09T10:09:02;4.53;;;2.80;;
54408;SDS011;40315;48.620;9.828;2023-07-09T10:11:39;4.85;;;3.13;;
54408;SDS011;40315;48.620;9.828;2023-07-09T10:14:19;5.63;;;2.90;;
54408;SDS011;40315;48.620;9.828;2023-07-09T10:16:58;4.85;;;3.30;;
54408;SDS011;40315;48.620;9.828;2023-07-09T10:19:31;4.40;;;3.10;;
54408;SDS011;40315;48.620;9.828;2023-07-09T10:22:06;4.53;;;3.03;;
54408;SDS011;40315;48.620;9.828;2023-07-09T10:24:43;4.60;;;3.28;;
54408;SDS011;40315;48.620;9.828;2023-07-09T10:27:20;4.57;;;3.20;;
54408;SDS011;40315;48.620;9.828;2023-07-09T10:30:15;5.28;;;3.58;;
54408;SDS011;40315;48.620;9.828;2023-07-09T10:33:05;4.55;;;3.40;;
54408;SDS011;40315;48.620;9.828;2023-07-09T10:35:37;4.10;;;3.33;;
54408;SDS011;40315;48.620;9.828;2023-07-09T10:38:14;4.60;;;3.35;;
54408;SDS011;40315;48.620;9.828;2023-07-09T10:40:54;5.75;;;3.20;;
54408;SDS011;40315;48.620;9.828;2023-07-09T10:43:25;4.82;;;3.47;;
54408;SDS011;40315;48.620;9.828;2023-07-09T10:45:59;5.90;;;3.40;;
54408;SDS011;40315;48.620;9.828;2023-07-09T10:48:34;3.63;;;2.90;;
54408;SDS011;40315;48.620;9.828;2023-07-09T10:51:09;3.72;;;3.42;;
54408;SDS011;40315;48.620;9.828;2023-07-09T10:53:44;4.88;;;3.80;;
54408;SDS011;40315;48.620;9.828;2023-07-09T10:56:14;5.18;;;3.60;;
54408;SDS011;40315;48.620;9.828;2023-07-09T10:58:46;5.13;;;3.75;;
54408;SDS011;40315;48.620;9.828;2023-07-09T11:01:25;4.47;;;3.28;;
54408;SDS011;40315;48.620;9.828;2023-07-09T11:04:00;4.30;;;3.55;;
54408;SDS011;40315;48.620;9.828;2023-07-09T11:06:36;3.63;;;3.30;;
54408;SDS011;40315;48.620;9.828;2023-07-09T11:09:11;5.28;;;3.45;;
54408;SDS011;40315;48.620;9.828;2023-07-09T11:11:44;5.55;;;3.72;;
54408;SDS011;40315;48.620;9.828;2023-07-09T11:14:20;4.70;;;3.38;;
54408;SDS011;40315;48.620;9.828;2023-07-09T11:16:51;4.13;;;3.33;;
54408;SDS011;40315;48.620;9.828;2023-07-09T11:19:23;6.10;;;3.65;;
54408;SDS011;40315;48.620;9.828;2023-07-09T11:24:44;5.00;;;3.70;;
54408;SDS011;40315;48.620;9.828;2023-07-09T11:27:17;8.32;;;3.90;;
54408;SDS011;40315;48.620;9.828;2023-07-09T11:29:46;5.25;;;3.70;;
54408;SDS011;40315;48.620;9.828;2023-07-09T11:32:19;6.93;;;3.50;;
54408;SDS011;40315;48.620;9.828;2023-07-09T11:34:52;5.75;;;3.60;;
54408;SDS011;40315;48.620;9.828;2023-07-09T11:37:20;5.50;;;3.70;;
54408;SDS011;40315;48.620;9.828;2023-07-09T11:39:54;5.07;;;3.72;;
54408;SDS011;40315;48.620;9.828;2023-07-09T11:42:46;5.45;;;4.15;;
54408;SDS011;40315;48.620;9.828;2023-07-09T11:45:16;4.57;;;3.65;;
54408;SDS011;40315;48.620;9.828;2023-07-09T11:47:48;5.35;;;3.60;;
54408;SDS011;40315;48.620;9.828;2023-07-09T11:50:23;7.22;;;3.97;;
54408;SDS011;40315;48.620;9.828;2023-07-09T11:52:52;5.05;;;3.50;;
54408;SDS011;40315;48.620;9.828;2023-07-09T11:55:24;5.70;;;4.05;;
54408;SDS011;40315;48.620;9.828;2023-07-09T11:57:54;6.95;;;4.35;;
54408;SDS011;40315;48.620;9.828;2023-07-09T12:00:25;5.50;;;4.03;;
54408;SDS011;40315;48.620;9.828;2023-07-09T12:02:55;5.63;;;3.55;;
54408;SDS011;40315;48.620;9.828;2023-07-09T12:05:27;6.40;;;4.13;;
54408;SDS011;40315;48.620;9.828;2023-07-09T12:07:55;7.57;;;5.05;;
54408;SDS011;40315;48.620;9.828;2023-07-09T12:10:25;6.38;;;4.40;;
54408;SDS011;40315;48.620;9.828;2023-07-09T12:12:55;7.00;;;4.20;;
54408;SDS011;40315;48.620;9.828;2023-07-09T12:15:24;10.95;;;4.22;;
54408;SDS011;40315;48.620;9.828;2023-07-09T12:17:53;8.75;;;3.85;;
54408;SDS011;40315;48.620;9.828;2023-07-09T12:20:28;4.47;;;3.58;;
54408;SDS011;40315;48.620;9.828;2023-07-09T12:22:59;5.65;;;4.00;;
54408;SDS011;40315;48.620;9.828;2023-07-09T12:25:27;5.97;;;3.97;;
54408;SDS011;40315;48.620;9.828;2023-07-09T12:27:59;6.72;;;3.92;;
54408;SDS011;40315;48.620;9.828;2023-07-09T12:30:28;6.05;;;3.72;;
54408;SDS011;40315;48.620;9.828;2023-07-09T12:32:59;5.07;;;3.75;;
54408;SDS011;40315;48.620;9.828;2023-07-09T12:35:27;4.10;;;3.50;;
54408;SDS011;40315;48.620;9.828;2023-07-09T12:37:55;5.72;;;3.85;;
54408;SDS011;40315;48.620;9.828;2023-07-09T12:40:26;3.60;;;3.25;;
54408;SDS011;40315;48.620;9.828;2023-07-09T12:42:55;7.30;;;3.85;;
54408;SDS011;40315;48.620;9.828;2023-07-09T12:45:23;6.75;;;4.32;;
54408;SDS011;40315;48.620;9.828;2023-07-09T12:47:51;4.75;;;3.65;;
54408;SDS011;40315;48.620;9.828;2023-07-09T12:50:21;7.18;;;3.40;;
54408;SDS011;40315;48.620;9.828;2023-07-09T12:52:56;4.05;;;3.65;;
54408;SDS011;40315;48.620;9.828;2023-07-09T12:55:28;8.20;;;4.07;;
54408;SDS011;40315;48.620;9.828;2023-07-09T12:58:03;6.95;;;4.15;;
54408;SDS011;40315;48.620;9.828;2023-07-09T13:00:35;5.15;;;3.90;;
54408;SDS011;40315;48.620;9.828;2023-07-09T13:03:02;5.28;;;3.75;;
54408;SDS011;40315;48.620;9.828;2023-07-09T13:05:30;7.50;;;4.22;;
54408;SDS011;40315;48.620;9.828;2023-07-09T13:07:58;7.43;;;4.25;;
54408;SDS011;40315;48.620;9.828;2023-07-09T13:10:27;7.65;;;4.40;;
54408;SDS011;40315;48.620;9.828;2023-07-09T13:12:56;4.57;;;3.80;;
54408;SDS011;40315;48.620;9.828;2023-07-09T13:15:29;5.68;;;3.80;;
54408;SDS011;40315;48.620;9.828;2023-07-09T13:17:58;5.43;;;4.28;;
54408;SDS011;40315;48.620;9.828;2023-07-09T13:20:28;6.05;;;3.55;;
54408;SDS011;40315;48.620;9.828;2023-07-09T13:22:57;5.95;;;3.67;;
54408;SDS011;40315;48.620;9.828;2023-07-09T13:25:25;7.28;;;3.88;;
54408;SDS011;40315;48.620;9.828;2023-07-09T13:27:55;5.00;;;4.00;;
54408;SDS011;40315;48.620;9.828;2023-07-09T13:30:24;8.85;;;4.07;;
54408;SDS011;40315;48.620;9.828;2023-07-09T13:32:51;6.90;;;4.10;;
54408;SDS011;40315;48.620;9.828;2023-07-09T13:35:20;8.00;;;4.22;;
54408;SDS011;40315;48.620;9.828;2023-07-09T13:37:48;6.53;;;3.88;;
54408;SDS011;40315;48.620;9.828;2023-07-09T13:40:19;7.15;;;4.43;;
54408;SDS011;40315;48.620;9.828;2023-07-09T13:42:47;6.32;;;3.95;;
54408;SDS011;40315;48.620;9.828;2023-07-09T13:45:16;7.30;;;5.20;;
54408;SDS011;40315;48.620;9.828;2023-07-09T13:47:45;9.20;;;4.60;;
54408;SDS011;40315;48.620;9.828;2023-07-09T13:50:13;6.75;;;4.15;;
54408;SDS011;40315;48.620;9.828;2023-07-09T13:52:42;5.57;;;3.65;;
54408;SDS011;40315;48.620;9.828;2023-07-09T13:55:14;7.75;;;4.18;;
54408;SDS011;40315;48.620;9.828;2023-07-09T13:57:45;8.30;;;4.28;;
54408;SDS011;40315;48.620;9.828;2023-07-09T14:00:14;5.47;;;3.92;;
54408;SDS011;40315;48.620;9.828;2023-07-09T14:02:42;6.05;;;4.10;;
54408;SDS011;40315;48.620;9.828;2023-07-09T14:05:11;4.85;;;3.78;;
54408;SDS011;40315;48.620;9.828;2023-07-09T14:07:40;6.07;;;3.95;;
54408;SDS011;40315;48.620;9.828;2023-07-09T14:10:11;5.45;;;3.83;;
54408;SDS011;40315;48.620;9.828;2023-07-09T14:12:44;7.13;;;4.32;;
54408;SDS011;40315;48.620;9.828;2023-07-09T14:15:15;5.80;;;4.00;;
54408;SDS011;40315;48.620;9.828;2023-07-09T14:17:46;5.68;;;3.92;;
54408;SDS011;40315;48.620;9.828;2023-07-09T14:20:14;5.32;;;4.10;;
54408;SDS011;40315;48.620;9.828;2023-07-09T14:22:43;6.40;;;3.97;;
54408;SDS011;40315;48.620;9.828;2023-07-09T14:25:15;6.90;;;4.25;;
54408;SDS011;40315;48.620;9.828;2023-07-09T14:27:44;5.07;;;3.85;;
54408;SDS011;40315;48.620;9.828;2023-07-09T14:30:16;5.78;;;3.97;;
54408;SDS011;40315;48.620;9.828;2023-07-09T14:32:46;6.50;;;4.00;;
54408;SDS011;40315;48.620;9.828;2023-07-09T14:35:15;7.28;;;4.35;;
54408;SDS011;40315;48.620;9.828;2023-07-09T14:37:43;5.75;;;4.03;;
54408;SDS011;40315;48.620;9.828;2023-07-09T14:40:13;5.78;;;4.50;;
54408;SDS011;40315;48.620;9.828;2023-07-09T14:42:42;5.93;;;3.78;;
54408;SDS011;40315;48.620;9.828;2023-07-09T14:45:17;6.95;;;3.90;;
54408;SDS011;40315;48.620;9.828;2023-07-09T14:47:45;5.38;;;3.83;;
54408;SDS011;40315;48.620;9.828;2023-07-09T14:50:13;5.85;;;4.15;;
54408;SDS011;40315;48.620;9.828;2023-07-09T14:52:41;6.00;;;3.90;;
54408;SDS011;40315;48.620;9.828;2023-07-09T14:55:12;6.45;;;4.22;;
54408;SDS011;40315;48.620;9.828;2023-07-09T14:57:41;6.60;;;4.25;;
54408;SDS011;40315;48.620;9.828;2023-07-09T15:00:12;5.95;;;4.00;;
54408;SDS011;40315;48.620;9.828;2023-07-09T15:02:41;9.55;;;4.03;;
54408;SDS011;40315;48.620;9.828;2023-07-09T15:05:13;4.93;;;3.60;;
54408;SDS011;40315;48.620;9.828;2023-07-09T15:07:41;5.82;;;4.20;;
54408;SDS011;40315;48.620;9.828;2023-07-09T15:10:12;7.60;;;3.85;;
54408;SDS011;40315;48.620;9.828;2023-07-09T15:12:40;5.32;;;3.92;;
54408;SDS011;40315;48.620;9.828;2023-07-09T15:15:13;4.78;;;3.72;;